MSR56S HECA-EGLL
Flight info
| Callsign | MSR56S |
|---|---|
| Flight time | N/A |
| Altitude | 38000 |
| Route | CVO L617 NOZ L551 ANTAR DCT NEVRA DCT TALAS DCT ENFAR DCT AKIKA DCT SOLGU DCT NAVSU DCT SABAD/N0462F400 DCT KUBUD DCT GIKUS DCT SOTOV DCT XEBIX DCT USUDO DCT LUPEN DCT ETINO DCT ABNUR DCT DIMAL DCT ALESO |
| Aircraft | A339/H-SADE1E2E3GHIJ3J5M1P2RWXY/LB2D1 |
Departure
| Time | 2026-05-04 05:40 |
|---|---|
| Airport | Cairo International Airport (HECA) |
Arrival
| Time | N/A |
|---|---|
| Airport | London Heathrow Airport (EGLL) |
| Time | Latitude | Longitude | Altitude | Speed | Heading |
|---|---|---|---|---|---|
| 2026-05-04 05:14 | 30.11157 | 31.40408 | 380 ft | 0 kts | 248° |
| 2026-05-04 05:28 | 30.11208 | 31.40447 | 380 ft | 0 kts | 138° |
| 2026-05-04 05:31 | 30.11082 | 31.40902 | 380 ft | 14 kts | 63° |
| 2026-05-04 05:31 | 30.11151 | 31.40998 | 380 ft | 17 kts | 49° |
| 2026-05-04 05:32 | 30.11232 | 31.41107 | 380 ft | 19 kts | 49° |
| 2026-05-04 05:32 | 30.11323 | 31.41229 | 380 ft | 21 kts | 49° |
| 2026-05-04 05:32 | 30.11424 | 31.41362 | 380 ft | 23 kts | 49° |
| 2026-05-04 05:33 | 30.11651 | 31.41659 | 380 ft | 26 kts | 48° |
| 2026-05-04 05:33 | 30.11775 | 31.41823 | 380 ft | 28 kts | 50° |
| 2026-05-04 05:33 | 30.11909 | 31.42005 | 380 ft | 33 kts | 50° |
| 2026-05-04 05:33 | 30.12061 | 31.42214 | 380 ft | 34 kts | 50° |
| 2026-05-04 05:34 | 30.12202 | 31.42409 | 380 ft | 25 kts | 55° |
| 2026-05-04 05:34 | 30.12268 | 31.42520 | 380 ft | 0 kts | 55° |
| 2026-05-04 05:34 | 30.12255 | 31.42498 | 380 ft | 6 kts | 55° |
| 2026-05-04 05:34 | 30.12226 | 31.42450 | 380 ft | 7 kts | 75° |
| 2026-05-04 05:35 | 30.12215 | 31.42453 | 380 ft | 6 kts | 119° |
| 2026-05-04 05:35 | 30.12133 | 31.42535 | 380 ft | 23 kts | 138° |
| 2026-05-04 05:35 | 30.11993 | 31.42678 | 380 ft | 29 kts | 139° |
| 2026-05-04 05:35 | 30.11838 | 31.42835 | 380 ft | 30 kts | 138° |
| 2026-05-04 05:36 | 30.11678 | 31.42993 | 380 ft | 31 kts | 140° |
| 2026-05-04 05:36 | 30.11517 | 31.43147 | 380 ft | 29 kts | 138° |
| 2026-05-04 05:36 | 30.11365 | 31.43299 | 380 ft | 28 kts | 139° |
| 2026-05-04 05:36 | 30.11221 | 31.43450 | 380 ft | 27 kts | 137° |
| 2026-05-04 05:37 | 30.11212 | 31.43613 | 380 ft | 22 kts | 44° |
| 2026-05-04 05:37 | 30.11326 | 31.43749 | 380 ft | 26 kts | 48° |
| 2026-05-04 05:37 | 30.11457 | 31.43924 | 380 ft | 30 kts | 49° |
| 2026-05-04 05:38 | 30.11739 | 31.44299 | 380 ft | 32 kts | 49° |
| 2026-05-04 05:38 | 30.11886 | 31.44498 | 380 ft | 33 kts | 50° |
| 2026-05-04 05:38 | 30.12016 | 31.44703 | 380 ft | 27 kts | 81° |
| 2026-05-04 05:38 | 30.11917 | 31.44806 | 380 ft | 19 kts | 184° |
| 2026-05-04 05:39 | 30.11817 | 31.44697 | 380 ft | 27 kts | 229° |
| 2026-05-04 05:39 | 30.11011 | 31.43627 | 380 ft | 142 kts | 229° |
| 2026-05-04 05:39 | 30.10265 | 31.42633 | 585 ft | 176 kts | 230° |
| 2026-05-04 05:40 | 30.08594 | 31.40424 | 2084 ft | 182 kts | 231° |
| 2026-05-04 05:40 | 30.07730 | 31.39280 | 2613 ft | 199 kts | 232° |
| 2026-05-04 05:40 | 30.06780 | 31.38008 | 2965 ft | 219 kts | 232° |
| 2026-05-04 05:41 | 30.05763 | 31.36597 | 3274 ft | 238 kts | 237° |
| 2026-05-04 05:41 | 30.05124 | 31.34803 | 3604 ft | 247 kts | 264° |
| 2026-05-04 05:41 | 30.05278 | 31.32842 | 4211 ft | 247 kts | 289° |
| 2026-05-04 05:41 | 30.06141 | 31.31149 | 4890 ft | 248 kts | 313° |
| 2026-05-04 05:42 | 30.07442 | 31.29833 | 5479 ft | 250 kts | 319° |
| 2026-05-04 05:42 | 30.08798 | 31.28553 | 6105 ft | 253 kts | 319° |
| 2026-05-04 05:42 | 30.10171 | 31.27261 | 6740 ft | 255 kts | 319° |
| 2026-05-04 05:42 | 30.11541 | 31.25958 | 7373 ft | 255 kts | 317° |
| 2026-05-04 05:43 | 30.12909 | 31.24645 | 7985 ft | 257 kts | 317° |
| 2026-05-04 05:43 | 30.14280 | 31.23321 | 8628 ft | 257 kts | 316° |
| 2026-05-04 05:43 | 30.15658 | 31.21984 | 9277 ft | 259 kts | 316° |
| 2026-05-04 05:45 | 30.26401 | 31.11547 | 12219 ft | 313 kts | 314° |
| 2026-05-04 05:45 | 30.28077 | 31.09923 | 12763 ft | 315 kts | 314° |
| 2026-05-04 05:47 | 30.40020 | 30.98294 | 16378 ft | 327 kts | 312° |
| 2026-05-04 05:47 | 30.41767 | 30.96590 | 16838 ft | 329 kts | 312° |